sensor_id;sensor_type;location;lat;lon;timestamp;pressure;altitude;pressure_sealevel;temperature;humidity
28927;BME280;16038;47.692;9.400;2023-02-19T00:01:20;97350.34;;;8.20;100.00
28927;BME280;16038;47.692;9.400;2023-02-19T00:03:50;97349.63;;;8.11;100.00
28927;BME280;16038;47.692;9.400;2023-02-19T00:06:16;97349.31;;;7.91;100.00
28927;BME280;16038;47.692;9.400;2023-02-19T00:08:42;97340.13;;;7.96;100.00
28927;BME280;16038;47.692;9.400;2023-02-19T00:11:08;97338.66;;;7.98;100.00
28927;BME280;16038;47.692;9.400;2023-02-19T00:13:35;97340.66;;;7.89;100.00
28927;BME280;16038;47.692;9.400;2023-02-19T00:16:23;97341.91;;;7.92;100.00
28927;BME280;16038;47.692;9.400;2023-02-19T00:18:49;97329.50;;;7.82;100.00
28927;BME280;16038;47.692;9.400;2023-02-19T00:21:16;97334.94;;;7.82;100.00
28927;BME280;16038;47.692;9.400;2023-02-19T00:23:42;97334.50;;;7.80;100.00
28927;BME280;16038;47.692;9.400;2023-02-19T00:26:08;97335.81;;;7.74;100.00
28927;BME280;16038;47.692;9.400;2023-02-19T00:28:34;97333.28;;;7.69;100.00
28927;BME280;16038;47.692;9.400;2023-02-19T00:31:04;97342.13;;;7.65;100.00
28927;BME280;16038;47.692;9.400;2023-02-19T00:33:30;97335.06;;;7.64;100.00
28927;BME280;16038;47.692;9.400;2023-02-19T00:35:58;97331.88;;;7.62;100.00
28927;BME280;16038;47.692;9.400;2023-02-19T00:38:23;97327.91;;;7.60;100.00
28927;BME280;16038;47.692;9.400;2023-02-19T00:40:49;97334.34;;;7.55;100.00
28927;BME280;16038;47.692;9.400;2023-02-19T00:43:15;97336.31;;;7.46;100.00
28927;BME280;16038;47.692;9.400;2023-02-19T00:45:40;97329.72;;;7.47;100.00
28927;BME280;16038;47.692;9.400;2023-02-19T00:48:06;97331.66;;;7.46;100.00
28927;BME280;16038;47.692;9.400;2023-02-19T00:50:31;97329.38;;;7.27;100.00
28927;BME280;16038;47.692;9.400;2023-02-19T00:52:56;97332.25;;;7.31;100.00
28927;BME280;16038;47.692;9.400;2023-02-19T00:55:22;97325.34;;;7.34;100.00
28927;BME280;16038;47.692;9.400;2023-02-19T00:57:47;97326.44;;;7.33;100.00
28927;BME280;16038;47.692;9.400;2023-02-19T01:00:12;97315.13;;;7.22;100.00
28927;BME280;16038;47.692;9.400;2023-02-19T01:02:38;97328.47;;;7.15;100.00
28927;BME280;16038;47.692;9.400;2023-02-19T01:05:04;97324.78;;;7.19;100.00
28927;BME280;16038;47.692;9.400;2023-02-19T01:07:29;97329.00;;;7.08;100.00
28927;BME280;16038;47.692;9.400;2023-02-19T01:09:54;97328.31;;;7.11;100.00
28927;BME280;16038;47.692;9.400;2023-02-19T01:12:20;97325.09;;;7.18;100.00
28927;BME280;16038;47.692;9.400;2023-02-19T01:14:45;97319.69;;;7.09;100.00
28927;BME280;16038;47.692;9.400;2023-02-19T01:17:11;97323.09;;;7.06;100.00
28927;BME280;16038;47.692;9.400;2023-02-19T01:19:36;97322.03;;;6.89;100.00
28927;BME280;16038;47.692;9.400;2023-02-19T01:22:02;97312.84;;;6.64;100.00
28927;BME280;16038;47.692;9.400;2023-02-19T01:24:27;97316.75;;;6.46;100.00
28927;BME280;16038;47.692;9.400;2023-02-19T01:26:52;97308.75;;;6.41;100.00
28927;BME280;16038;47.692;9.400;2023-02-19T01:29:18;97311.28;;;6.46;100.00
28927;BME280;16038;47.692;9.400;2023-02-19T01:31:43;97308.75;;;6.41;100.00
28927;BME280;16038;47.692;9.400;2023-02-19T01:34:09;97302.38;;;6.37;100.00
28927;BME280;16038;47.692;9.400;2023-02-19T01:36:35;97305.84;;;6.46;100.00
28927;BME280;16038;47.692;9.400;2023-02-19T01:39:03;97303.72;;;6.60;100.00
28927;BME280;16038;47.692;9.400;2023-02-19T01:41:29;97310.63;;;6.58;100.00
28927;BME280;16038;47.692;9.400;2023-02-19T01:43:56;97307.91;;;6.58;100.00
28927;BME280;16038;47.692;9.400;2023-02-19T01:46:28;97302.94;;;6.60;100.00
28927;BME280;16038;47.692;9.400;2023-02-19T01:48:55;97298.28;;;6.60;100.00
28927;BME280;16038;47.692;9.400;2023-02-19T01:51:21;97298.09;;;6.65;100.00
28927;BME280;16038;47.692;9.400;2023-02-19T01:53:49;97283.72;;;6.65;100.00
28927;BME280;16038;47.692;9.400;2023-02-19T01:56:16;97282.28;;;6.59;100.00
28927;BME280;16038;47.692;9.400;2023-02-19T01:58:42;97271.38;;;6.59;100.00
28927;BME280;16038;47.692;9.400;2023-02-19T02:01:08;97273.97;;;6.55;100.00
28927;BME280;16038;47.692;9.400;2023-02-19T02:03:37;97269.50;;;6.50;100.00
28927;BME280;16038;47.692;9.400;2023-02-19T02:06:04;97259.72;;;6.58;100.00
28927;BME280;16038;47.692;9.400;2023-02-19T02:08:31;97258.44;;;6.56;100.00
28927;BME280;16038;47.692;9.400;2023-02-19T02:11:16;97249.97;;;6.57;100.00
28927;BME280;16038;47.692;9.400;2023-02-19T02:13:41;97252.69;;;6.57;100.00
28927;BME280;16038;47.692;9.400;2023-02-19T02:16:23;97270.91;;;6.57;100.00
28927;BME280;16038;47.692;9.400;2023-02-19T02:29:53;97253.16;;;6.59;100.00
28927;BME280;16038;47.692;9.400;2023-02-19T02:32:09;97243.66;;;6.65;100.00
28927;BME280;16038;47.692;9.400;2023-02-19T02:34:39;97246.50;;;6.78;100.00
28927;BME280;16038;47.692;9.400;2023-02-19T02:37:05;97232.94;;;6.99;100.00
28927;BME280;16038;47.692;9.400;2023-02-19T02:39:32;97235.56;;;7.07;100.00
28927;BME280;16038;47.692;9.400;2023-02-19T02:41:58;97233.34;;;7.10;100.00
28927;BME280;16038;47.692;9.400;2023-02-19T02:44:43;97229.28;;;7.16;100.00
28927;BME280;16038;47.692;9.400;2023-02-19T02:47:32;97234.53;;;7.21;100.00
28927;BME280;16038;47.692;9.400;2023-02-19T02:51:10;97233.88;;;7.24;100.00
28927;BME280;16038;47.692;9.400;2023-02-19T02:53:06;97227.44;;;7.28;100.00
28927;BME280;16038;47.692;9.400;2023-02-19T02:55:51;97219.19;;;7.37;100.00
28927;BME280;16038;47.692;9.400;2023-02-19T02:58:17;97228.22;;;7.50;100.00
28927;BME280;16038;47.692;9.400;2023-02-19T03:00:44;97230.16;;;7.50;100.00
28927;BME280;16038;47.692;9.400;2023-02-19T03:03:32;97224.25;;;7.47;100.00
28927;BME280;16038;47.692;9.400;2023-02-19T03:06:00;97221.84;;;7.46;100.00
28927;BME280;16038;47.692;9.400;2023-02-19T03:08:48;97236.41;;;7.50;100.00
28927;BME280;16038;47.692;9.400;2023-02-19T03:11:15;97224.84;;;7.53;100.00
28927;BME280;16038;47.692;9.400;2023-02-19T03:14:14;97225.63;;;7.54;100.00
28927;BME280;16038;47.692;9.400;2023-02-19T03:17:00;97232.34;;;7.56;100.00
28927;BME280;16038;47.692;9.400;2023-02-19T03:19:48;97239.59;;;7.52;100.00
28927;BME280;16038;47.692;9.400;2023-02-19T03:22:19;97241.84;;;7.50;100.00
28927;BME280;16038;47.692;9.400;2023-02-19T03:24:48;97230.94;;;7.50;100.00
28927;BME280;16038;47.692;9.400;2023-02-19T03:27:34;97221.31;;;7.53;100.00
28927;BME280;16038;47.692;9.400;2023-02-19T03:30:07;97222.91;;;7.54;100.00
28927;BME280;16038;47.692;9.400;2023-02-19T03:32:36;97222.16;;;7.65;100.00
28927;BME280;16038;47.692;9.400;2023-02-19T03:35:14;97222.81;;;7.62;100.00
28927;BME280;16038;47.692;9.400;2023-02-19T03:37:43;97228.09;;;7.68;100.00
28927;BME280;16038;47.692;9.400;2023-02-19T03:40:10;97240.94;;;7.67;100.00
28927;BME280;16038;47.692;9.400;2023-02-19T03:42:39;97244.78;;;7.66;100.00
28927;BME280;16038;47.692;9.400;2023-02-19T03:48:01;97261.66;;;7.59;100.00
28927;BME280;16038;47.692;9.400;2023-02-19T03:50:44;97268.19;;;7.67;100.00
28927;BME280;16038;47.692;9.400;2023-02-19T03:53:22;97256.00;;;7.64;100.00
28927;BME280;16038;47.692;9.400;2023-02-19T03:58:32;97243.91;;;7.53;100.00
28927;BME280;16038;47.692;9.400;2023-02-19T04:01:01;97237.00;;;7.56;100.00
28927;BME280;16038;47.692;9.400;2023-02-19T04:06:00;97209.84;;;7.59;100.00
28927;BME280;16038;47.692;9.400;2023-02-19T04:08:27;97211.66;;;7.55;100.00
28927;BME280;16038;47.692;9.400;2023-02-19T04:10:56;97215.50;;;7.54;100.00
28927;BME280;16038;47.692;9.400;2023-02-19T04:13:26;97207.13;;;7.59;100.00
28927;BME280;16038;47.692;9.400;2023-02-19T04:15:55;97202.13;;;7.61;100.00
28927;BME280;16038;47.692;9.400;2023-02-19T04:18:25;97205.34;;;7.63;100.00
28927;BME280;16038;47.692;9.400;2023-02-19T04:20:53;97218.25;;;7.54;100.00
28927;BME280;16038;47.692;9.400;2023-02-19T04:23:19;97213.00;;;7.49;100.00
28927;BME280;16038;47.692;9.400;2023-02-19T04:25:47;97198.97;;;7.59;100.00
28927;BME280;16038;47.692;9.400;2023-02-19T04:28:14;97208.94;;;7.55;100.00
28927;BME280;16038;47.692;9.400;2023-02-19T04:30:41;97219.19;;;7.58;100.00
28927;BME280;16038;47.692;9.400;2023-02-19T04:33:07;97208.47;;;7.53;100.00
28927;BME280;16038;47.692;9.400;2023-02-19T04:35:32;97219.91;;;7.46;100.00
28927;BME280;16038;47.692;9.400;2023-02-19T04:37:58;97227.38;;;7.37;100.00
28927;BME280;16038;47.692;9.400;2023-02-19T04:40:23;97242.47;;;7.35;100.00
28927;BME280;16038;47.692;9.400;2023-02-19T04:42:49;97236.53;;;7.33;100.00
28927;BME280;16038;47.692;9.400;2023-02-19T04:45:15;97252.88;;;7.33;100.00
28927;BME280;16038;47.692;9.400;2023-02-19T04:47:40;97255.88;;;7.40;100.00
28927;BME280;16038;47.692;9.400;2023-02-19T04:50:05;97265.47;;;7.46;100.00
28927;BME280;16038;47.692;9.400;2023-02-19T04:52:32;97258.78;;;7.56;100.00
28927;BME280;16038;47.692;9.400;2023-02-19T04:54:57;97252.44;;;7.52;100.00
28927;BME280;16038;47.692;9.400;2023-02-19T04:57:22;97255.59;;;7.33;100.00
28927;BME280;16038;47.692;9.400;2023-02-19T04:59:48;97253.16;;;7.19;100.00
28927;BME280;16038;47.692;9.400;2023-02-19T05:02:13;97268.69;;;7.18;100.00
28927;BME280;16038;47.692;9.400;2023-02-19T05:04:39;97271.22;;;7.23;100.00
28927;BME280;16038;47.692;9.400;2023-02-19T05:07:04;97264.66;;;7.24;100.00
28927;BME280;16038;47.692;9.400;2023-02-19T05:09:30;97278.22;;;7.33;100.00
28927;BME280;16038;47.692;9.400;2023-02-19T05:11:55;97261.88;;;7.33;100.00
28927;BME280;16038;47.692;9.400;2023-02-19T05:14:20;97263.44;;;7.34;100.00
28927;BME280;16038;47.692;9.400;2023-02-19T05:16:46;97256.16;;;7.26;100.00
28927;BME280;16038;47.692;9.400;2023-02-19T05:19:11;97253.75;;;7.24;100.00
28927;BME280;16038;47.692;9.400;2023-02-19T05:21:36;97251.03;;;7.24;100.00
28927;BME280;16038;47.692;9.400;2023-02-19T05:24:03;97254.53;;;7.25;100.00
28927;BME280;16038;47.692;9.400;2023-02-19T05:26:29;97253.75;;;7.24;100.00
28927;BME280;16038;47.692;9.400;2023-02-19T05:28:55;97255.59;;;7.33;100.00
28927;BME280;16038;47.692;9.400;2023-02-19T05:31:20;97252.75;;;7.29;100.00
28927;BME280;16038;47.692;9.400;2023-02-19T05:33:46;97255.13;;;7.31;100.00
28927;BME280;16038;47.692;9.400;2023-02-19T05:36:15;97263.25;;;7.39;100.00
28927;BME280;16038;47.692;9.400;2023-02-19T05:38:41;97263.25;;;7.39;100.00
28927;BME280;16038;47.692;9.400;2023-02-19T05:41:07;97280.13;;;7.33;100.00
28927;BME280;16038;47.692;9.400;2023-02-19T05:43:33;97284.31;;;7.30;100.00
28927;BME280;16038;47.692;9.400;2023-02-19T05:45:58;97273.75;;;7.28;100.00
28927;BME280;16038;47.692;9.400;2023-02-19T05:48:23;97286.25;;;7.30;100.00
28927;BME280;16038;47.692;9.400;2023-02-19T05:50:49;97281.53;;;7.39;100.00
28927;BME280;16038;47.692;9.400;2023-02-19T05:53:14;97296.16;;;7.55;100.00
28927;BME280;16038;47.692;9.400;2023-02-19T05:55:39;97290.53;;;7.60;100.00
28927;BME280;16038;47.692;9.400;2023-02-19T05:58:04;97282.13;;;7.44;100.00
28927;BME280;16038;47.692;9.400;2023-02-19T06:00:30;97296.03;;;7.52;100.00
28927;BME280;16038;47.692;9.400;2023-02-19T06:02:56;97304.03;;;7.57;100.00
28927;BME280;16038;47.692;9.400;2023-02-19T06:05:21;97295.16;;;7.39;100.00
28927;BME280;16038;47.692;9.400;2023-02-19T06:07:47;97293.63;;;7.50;100.00
28927;BME280;16038;47.692;9.400;2023-02-19T06:10:14;97304.88;;;7.49;100.00
28927;BME280;16038;47.692;9.400;2023-02-19T06:12:40;97303.63;;;7.46;100.00
28927;BME280;16038;47.692;9.400;2023-02-19T06:15:05;97304.69;;;7.54;100.00
28927;BME280;16038;47.692;9.400;2023-02-19T06:17:31;97296.75;;;7.61;100.00
28927;BME280;16038;47.692;9.400;2023-02-19T06:19:57;97297.91;;;7.60;100.00
28927;BME280;16038;47.692;9.400;2023-02-19T06:22:22;97313.66;;;7.54;100.00
28927;BME280;16038;47.692;9.400;2023-02-19T06:24:49;97308.41;;;7.49;100.00
28927;BME280;16038;47.692;9.400;2023-02-19T06:27:14;97307.28;;;7.50;100.00
28927;BME280;16038;47.692;9.400;2023-02-19T06:29:40;97306.28;;;7.55;100.00
28927;BME280;16038;47.692;9.400;2023-02-19T06:32:05;97316.72;;;7.53;100.00
28927;BME280;16038;47.692;9.400;2023-02-19T06:34:31;97317.19;;;7.55;100.00
28927;BME280;16038;47.692;9.400;2023-02-19T06:36:57;97313.72;;;7.45;100.00
28927;BME280;16038;47.692;9.400;2023-02-19T06:39:23;97327.91;;;7.60;100.00
28927;BME280;16038;47.692;9.400;2023-02-19T06:41:48;97325.38;;;7.55;100.00
28927;BME280;16038;47.692;9.400;2023-02-19T06:44:14;97324.09;;;7.52;100.00
28927;BME280;16038;47.692;9.400;2023-02-19T06:46:39;97330.53;;;7.47;100.00
28927;BME280;16038;47.692;9.400;2023-02-19T06:49:05;97332.41;;;7.56;100.00
28927;BME280;16038;47.692;9.400;2023-02-19T06:51:30;97339.94;;;7.59;100.00
28927;BME280;16038;47.692;9.400;2023-02-19T06:53:59;97342.97;;;7.57;100.00
28927;BME280;16038;47.692;9.400;2023-02-19T06:56:30;97343.56;;;7.63;100.00
28927;BME280;16038;47.692;9.400;2023-02-19T06:58:57;97353.41;;;7.55;100.00
28927;BME280;16038;47.692;9.400;2023-02-19T07:01:27;97358.81;;;7.64;100.00
28927;BME280;16038;47.692;9.400;2023-02-19T07:03:52;97369.72;;;7.64;100.00
28927;BME280;16038;47.692;9.400;2023-02-19T07:06:18;97380.34;;;7.57;100.00
28927;BME280;16038;47.692;9.400;2023-02-19T07:08:44;97371.94;;;7.71;100.00
28927;BME280;16038;47.692;9.400;2023-02-19T07:11:10;97378.81;;;7.68;100.00
28927;BME280;16038;47.692;9.400;2023-02-19T07:13:35;97379.63;;;7.69;100.00
28927;BME280;16038;47.692;9.400;2023-02-19T07:16:02;97373.16;;;7.52;100.00
28927;BME280;16038;47.692;9.400;2023-02-19T07:18:28;97383.41;;;7.55;100.00
28927;BME280;16038;47.692;9.400;2023-02-19T07:20:53;97384.53;;;7.54;100.00
28927;BME280;16038;47.692;9.400;2023-02-19T07:23:19;97386.53;;;7.66;100.00
28927;BME280;16038;47.692;9.400;2023-02-19T07:25:44;97391.41;;;8.02;100.00
28927;BME280;16038;47.692;9.400;2023-02-19T07:28:09;97391.69;;;8.31;100.00
28927;BME280;16038;47.692;9.400;2023-02-19T07:30:35;97384.41;;;8.35;100.00
28927;BME280;16038;47.692;9.400;2023-02-19T07:33:00;97391.03;;;8.13;100.00
28927;BME280;16038;47.692;9.400;2023-02-19T07:35:25;97397.19;;;8.01;100.00
28927;BME280;16038;47.692;9.400;2023-02-19T07:37:51;97408.03;;;8.85;100.00
28927;BME280;16038;47.692;9.400;2023-02-19T07:40:16;97399.91;;;9.10;100.00
28927;BME280;16038;47.692;9.400;2023-02-19T07:42:41;97411.06;;;9.54;100.00
28927;BME280;16038;47.692;9.400;2023-02-19T07:45:07;97412.03;;;9.00;100.00
28927;BME280;16038;47.692;9.400;2023-02-19T07:47:32;97416.81;;;8.91;100.00
28927;BME280;16038;47.692;9.400;2023-02-19T07:49:57;97427.16;;;8.85;100.00
28927;BME280;16038;47.692;9.400;2023-02-19T07:52:23;97429.84;;;9.06;100.00
28927;BME280;16038;47.692;9.400;2023-02-19T07:54:48;97425.59;;;8.96;100.00
28927;BME280;16038;47.692;9.400;2023-02-19T07:57:13;97431.41;;;8.95;100.00
28927;BME280;16038;47.692;9.400;2023-02-19T07:59:39;97431.00;;;9.17;100.00
28927;BME280;16038;47.692;9.400;2023-02-19T08:02:08;97425.16;;;9.07;100.00
28927;BME280;16038;47.692;9.400;2023-02-19T08:04:53;97427.31;;;9.01;100.00
28927;BME280;16038;47.692;9.400;2023-02-19T08:07:18;97429.41;;;9.41;100.00
28927;BME280;16038;47.692;9.400;2023-02-19T08:09:44;97429.63;;;9.98;100.00
28927;BME280;16038;47.692;9.400;2023-02-19T08:12:10;97431.38;;;10.30;98.99
28927;BME280;16038;47.692;9.400;2023-02-19T08:14:54;97430.00;;;10.24;98.71
28927;BME280;16038;47.692;9.400;2023-02-19T08:17:19;97443.69;;;10.24;98.61
28927;BME280;16038;47.692;9.400;2023-02-19T08:19:45;97437.94;;;10.98;95.22
28927;BME280;16038;47.692;9.400;2023-02-19T08:22:10;97448.03;;;10.94;93.74
28927;BME280;16038;47.692;9.400;2023-02-19T08:24:35;97441.09;;;11.60;90.09
28927;BME280;16038;47.692;9.400;2023-02-19T08:27:01;97442.50;;;11.22;91.14
28927;BME280;16038;47.692;9.400;2023-02-19T08:29:27;97435.41;;;10.89;93.82
28927;BME280;16038;47.692;9.400;2023-02-19T08:31:52;97450.53;;;10.99;93.91
28927;BME280;16038;47.692;9.400;2023-02-19T08:34:17;97458.41;;;11.01;94.15
28927;BME280;16038;47.692;9.400;2023-02-19T08:36:42;97468.22;;;11.18;92.04
28927;BME280;16038;47.692;9.400;2023-02-19T08:39:08;97465.50;;;10.74;93.87
28927;BME280;16038;47.692;9.400;2023-02-19T08:41:34;97473.69;;;10.45;97.64
28927;BME280;16038;47.692;9.400;2023-02-19T08:43:59;97456.16;;;10.34;97.14
28927;BME280;16038;47.692;9.400;2023-02-19T08:46:25;97465.97;;;10.23;98.38
28927;BME280;16038;47.692;9.400;2023-02-19T08:48:50;97464.50;;;10.01;99.79
28927;BME280;16038;47.692;9.400;2023-02-19T08:51:16;97471.25;;;9.91;100.00
28927;BME280;16038;47.692;9.400;2023-02-19T08:53:41;97475.22;;;9.81;100.00
28927;BME280;16038;47.692;9.400;2023-02-19T08:56:08;97458.72;;;9.53;100.00
28927;BME280;16038;47.692;9.400;2023-02-19T08:58:33;97484.38;;;9.85;100.00
28927;BME280;16038;47.692;9.400;2023-02-19T09:01:00;97482.88;;;9.88;100.00
28927;BME280;16038;47.692;9.400;2023-02-19T09:03:25;97481.41;;;9.78;100.00
28927;BME280;16038;47.692;9.400;2023-02-19T09:05:51;97495.06;;;9.66;100.00
28927;BME280;16038;47.692;9.400;2023-02-19T09:08:16;97488.44;;;9.79;100.00
28927;BME280;16038;47.692;9.400;2023-02-19T09:10:41;97490.84;;;9.44;100.00
28927;BME280;16038;47.692;9.400;2023-02-19T09:13:07;97482.16;;;9.42;100.00
28927;BME280;16038;47.692;9.400;2023-02-19T09:15:32;97506.13;;;9.57;100.00
28927;BME280;16038;47.692;9.400;2023-02-19T09:17:57;97495.97;;;9.70;100.00
28927;BME280;16038;47.692;9.400;2023-02-19T09:20:23;97497.78;;;9.53;100.00
28927;BME280;16038;47.692;9.400;2023-02-19T09:22:48;97504.28;;;9.36;100.00
28927;BME280;16038;47.692;9.400;2023-02-19T09:25:14;97498.56;;;9.42;100.00
28927;BME280;16038;47.692;9.400;2023-02-19T09:27:39;97505.00;;;9.58;100.00
28927;BME280;16038;47.692;9.400;2023-02-19T09:30:04;97509.38;;;9.38;100.00
28927;BME280;16038;47.692;9.400;2023-02-19T09:32:30;97504.34;;;9.28;100.00
28927;BME280;16038;47.692;9.400;2023-02-19T09:34:55;97509.78;;;9.15;100.00
28927;BME280;16038;47.692;9.400;2023-02-19T09:37:24;97526.94;;;9.04;100.00
28927;BME280;16038;47.692;9.400;2023-02-19T09:39:50;97517.63;;;9.05;100.00
28927;BME280;16038;47.692;9.400;2023-02-19T09:42:19;97521.19;;;9.17;100.00
28927;BME280;16038;47.692;9.400;2023-02-19T09:44:47;97519.81;;;9.11;100.00
28927;BME280;16038;47.692;9.400;2023-02-19T09:47:16;97528.38;;;9.22;100.00
28927;BME280;16038;47.692;9.400;2023-02-19T09:49:43;97532.84;;;9.39;100.00
28927;BME280;16038;47.692;9.400;2023-02-19T09:54:42;97525.19;;;9.32;100.00
28927;BME280;16038;47.692;9.400;2023-02-19T09:57:16;97529.78;;;9.41;100.00
28927;BME280;16038;47.692;9.400;2023-02-19T09:59:50;97522.16;;;9.46;100.00
28927;BME280;16038;47.692;9.400;2023-02-19T10:02:16;97530.78;;;9.36;100.00
28927;BME280;16038;47.692;9.400;2023-02-19T10:04:43;97524.31;;;9.41;100.00
28927;BME280;16038;47.692;9.400;2023-02-19T10:07:12;97520.44;;;9.42;100.00
28927;BME280;16038;47.692;9.400;2023-02-19T10:09:38;97519.06;;;9.35;100.00
28927;BME280;16038;47.692;9.400;2023-02-19T10:12:03;97523.88;;;9.51;100.00
28927;BME280;16038;47.692;9.400;2023-02-19T10:14:39;97522.88;;;9.80;100.00
28927;BME280;16038;47.692;9.400;2023-02-19T10:17:05;97520.34;;;9.63;100.00
28927;BME280;16038;47.692;9.400;2023-02-19T10:19:34;97514.28;;;9.45;100.00
28927;BME280;16038;47.692;9.400;2023-02-19T10:22:00;97530.47;;;9.50;100.00
28927;BME280;16038;47.692;9.400;2023-02-19T10:24:27;97518.28;;;9.60;100.00
28927;BME280;16038;47.692;9.400;2023-02-19T10:26:53;97527.22;;;9.69;100.00
28927;BME280;16038;47.692;9.400;2023-02-19T10:29:19;97525.06;;;9.74;100.00
28927;BME280;16038;47.692;9.400;2023-02-19T10:31:46;97517.28;;;9.52;100.00
28927;BME280;16038;47.692;9.400;2023-02-19T10:34:20;97523.97;;;9.42;100.00
28927;BME280;16038;47.692;9.400;2023-02-19T10:36:46;97532.56;;;9.65;100.00
28927;BME280;16038;47.692;9.400;2023-02-19T10:41:44;97522.22;;;9.83;100.00
28927;BME280;16038;47.692;9.400;2023-02-19T10:44:28;97524.59;;;9.72;99.80
28927;BME280;16038;47.692;9.400;2023-02-19T10:46:56;97542.97;;;9.97;98.94
28927;BME280;16038;47.692;9.400;2023-02-19T10:49:24;97545.00;;;9.75;99.59
28927;BME280;16038;47.692;9.400;2023-02-19T10:52:00;97542.84;;;9.81;99.75
28927;BME280;16038;47.692;9.400;2023-02-19T10:54:32;97546.03;;;9.83;98.81
28927;BME280;16038;47.692;9.400;2023-02-19T10:59:59;97539.66;;;10.03;97.97
28927;BME280;16038;47.692;9.400;2023-02-19T11:02:26;97549.56;;;9.95;97.34
28927;BME280;16038;47.692;9.400;2023-02-19T11:07:26;97534.16;;;10.28;95.63
28927;BME280;16038;47.692;9.400;2023-02-19T11:09:51;97523.19;;;10.52;94.11
28927;BME280;16038;47.692;9.400;2023-02-19T11:12:28;97512.78;;;10.58;92.99
28927;BME280;16038;47.692;9.400;2023-02-19T11:14:54;97527.22;;;11.12;90.22
28927;BME280;16038;47.692;9.400;2023-02-19T11:17:21;97527.38;;;11.63;87.33
28927;BME280;16038;47.692;9.400;2023-02-19T11:19:49;97517.63;;;12.29;82.88
28927;BME280;16038;47.692;9.400;2023-02-19T11:24:51;97523.78;;;12.77;79.61
28927;BME280;16038;47.692;9.400;2023-02-19T11:27:18;97503.78;;;12.61;76.44
28927;BME280;16038;47.692;9.400;2023-02-19T11:29:44;97522.25;;;12.60;77.44
28927;BME280;16038;47.692;9.400;2023-02-19T11:34:44;97519.56;;;13.23;73.13
28927;BME280;16038;47.692;9.400;2023-02-19T11:37:14;97521.88;;;13.40;71.48
28927;BME280;16038;47.692;9.400;2023-02-19T11:39:40;97519.06;;;12.97;73.08
28927;BME280;16038;47.692;9.400;2023-02-19T11:45:04;97501.28;;;12.01;76.02
28927;BME280;16038;47.692;9.400;2023-02-19T11:50:02;97489.78;;;11.79;77.05
28927;BME280;16038;47.692;9.400;2023-02-19T12:10:40;97460.91;;;11.38;78.13
28927;BME280;16038;47.692;9.400;2023-02-19T12:15:44;97466.66;;;11.17;77.57
28927;BME280;16038;47.692;9.400;2023-02-19T12:20:42;97475.16;;;12.42;73.71
28927;BME280;16038;47.692;9.400;2023-02-19T12:31:28;97485.25;;;12.03;72.81
28927;BME280;16038;47.692;9.400;2023-02-19T12:39:13;97493.84;;;11.70;74.40
28927;BME280;16038;47.692;9.400;2023-02-19T12:41:47;97491.44;;;11.68;74.22
28927;BME280;16038;47.692;9.400;2023-02-19T12:44:21;97496.38;;;11.31;75.68
28927;BME280;16038;47.692;9.400;2023-02-19T12:46:52;97493.28;;;11.32;75.29
28927;BME280;16038;47.692;9.400;2023-02-19T12:49:25;97486.28;;;11.19;75.96
28927;BME280;16038;47.692;9.400;2023-02-19T12:52:15;97512.03;;;11.30;76.09
28927;BME280;16038;47.692;9.400;2023-02-19T12:54:39;97515.28;;;11.20;75.52
28927;BME280;16038;47.692;9.400;2023-02-19T13:02:21;97511.09;;;11.38;75.36
28927;BME280;16038;47.692;9.400;2023-02-19T13:05:04;97515.78;;;11.70;74.89
28927;BME280;16038;47.692;9.400;2023-02-19T13:10:06;97504.28;;;11.80;73.40
28927;BME280;16038;47.692;9.400;2023-02-19T13:12:39;97504.63;;;11.46;75.61
28927;BME280;16038;47.692;9.400;2023-02-19T13:15:14;97512.72;;;11.27;76.67
28927;BME280;16038;47.692;9.400;2023-02-19T13:17:42;97529.84;;;11.52;75.35
28927;BME280;16038;47.692;9.400;2023-02-19T13:22:54;97512.69;;;11.87;72.92
28927;BME280;16038;47.692;9.400;2023-02-19T13:28:30;97495.19;;;11.76;73.71
28927;BME280;16038;47.692;9.400;2023-02-19T13:36:01;97495.66;;;12.29;71.07
28927;BME280;16038;47.692;9.400;2023-02-19T13:38:40;97490.84;;;11.91;71.84
28927;BME280;16038;47.692;9.400;2023-02-19T13:41:15;97501.19;;;11.81;72.52
28927;BME280;16038;47.692;9.400;2023-02-19T13:43:41;97504.47;;;11.55;72.85
28927;BME280;16038;47.692;9.400;2023-02-19T13:46:08;97500.47;;;11.53;72.73
28927;BME280;16038;47.692;9.400;2023-02-19T13:48:35;97508.19;;;11.47;72.74
28927;BME280;16038;47.692;9.400;2023-02-19T14:14:52;97487.19;;;11.39;70.25
28927;BME280;16038;47.692;9.400;2023-02-19T14:19:56;97496.94;;;11.52;70.30
28927;BME280;16038;47.692;9.400;2023-02-19T14:25:07;97491.41;;;11.20;69.71
28927;BME280;16038;47.692;9.400;2023-02-19T14:27:38;97493.34;;;11.04;69.90
28927;BME280;16038;47.692;9.400;2023-02-19T14:30:03;97499.41;;;10.97;70.64
28927;BME280;16038;47.692;9.400;2023-02-19T14:32:29;97505.09;;;11.04;71.03
28927;BME280;16038;47.692;9.400;2023-02-19T14:34:54;97497.75;;;10.80;70.47
28927;BME280;16038;47.692;9.400;2023-02-19T14:37:22;97499.59;;;10.76;70.46
28927;BME280;16038;47.692;9.400;2023-02-19T14:39:49;97491.41;;;10.64;70.01
28927;BME280;16038;47.692;9.400;2023-02-19T14:42:19;97483.28;;;10.51;70.42
28927;BME280;16038;47.692;9.400;2023-02-19T14:44:50;97492.28;;;10.52;69.82
28927;BME280;16038;47.692;9.400;2023-02-19T14:47:20;97501.00;;;10.70;68.26
28927;BME280;16038;47.692;9.400;2023-02-19T14:50:06;97483.22;;;10.92;67.00
28927;BME280;16038;47.692;9.400;2023-02-19T14:52:39;97490.59;;;11.04;65.49
28927;BME280;16038;47.692;9.400;2023-02-19T14:55:12;97494.34;;;11.27;64.85
28927;BME280;16038;47.692;9.400;2023-02-19T14:57:42;97487.69;;;11.28;64.07
28927;BME280;16038;47.692;9.400;2023-02-19T15:02:44;97497.22;;;11.47;63.82
28927;BME280;16038;47.692;9.400;2023-02-19T15:05:31;97492.59;;;11.51;63.29
28927;BME280;16038;47.692;9.400;2023-02-19T15:07:56;97510.28;;;11.54;63.24
28927;BME280;16038;47.692;9.400;2023-02-19T15:10:21;97518.59;;;11.41;63.44
28927;BME280;16038;47.692;9.400;2023-02-19T15:12:51;97513.91;;;11.26;64.08